Time;durP1;ratioP1;P1;durP2;ratioP2;P2;SDS_P1;SDS_P2;PMS_P1;PMS_P2;Temp;Humidity;BMP_temperature;BMP_pressure;BME280_temperature;BME280_humidity;BME280_pressure;Samples;Min_cycle;Max_cycle;Signal;HPM_P1;HPM_P2
2022/12/17 13:08:07;;;;;;;1.85;1.30;;;;;;;2.91;100.00;100825.28;5026196;28;20399;-45
2022/12/17 13:10:35;;;;;;;2.53;1.60;;;;;;;2.94;100.00;100834.81;5019532;28;20037;-44
2022/12/17 13:13:16;;;;;;;3.92;1.88;;;;;;;3.03;100.00;100839.34;5018969;28;20046;-45
2022/12/17 13:15:49;;;;;;;2.00;0.98;;;;;;;3.10;100.00;100838.97;5023629;28;20057;-44
2022/12/17 13:18:19;;;;;;;3.72;2.00;;;;;;;3.15;100.00;100838.91;5024719;28;20045;-45
2022/12/17 13:20:58;;;;;;;3.20;1.65;;;;;;;3.20;100.00;100846.25;5023525;28;20085;-42
2022/12/17 13:23:37;;;;;;;2.10;1.50;;;;;;;3.25;100.00;100844.28;5020526;28;20064;-42
2022/12/17 13:26:23;;;;;;;2.58;1.55;;;;;;;3.34;100.00;100850.69;5019891;28;20046;-42
2022/12/17 13:28:56;;;;;;;3.53;2.05;;;;;;;3.44;100.00;100844.28;5016697;28;20045;-43
2022/12/17 13:31:45;;;;;;;4.60;1.48;;;;;;;3.55;100.00;100840.28;5020900;28;20083;-42
2022/12/17 13:34:47;;;;;;;4.82;2.33;;;;;;;3.66;100.00;100841.75;5022523;28;20053;-42
2022/12/17 13:37:39;;;;;;;5.75;1.23;;;;;;;3.83;100.00;100833.00;4958525;28;20054;-44
2022/12/17 13:40:12;;;;;;;6.22;1.38;;;;;;;3.91;100.00;100835.06;5015747;28;20495;-39
2022/12/17 13:42:39;;;;;;;2.50;1.40;;;;;;;4.01;100.00;100832.97;5003203;28;20056;-46
2022/12/17 13:45:06;;;;;;;1.48;1.02;;;;;;;4.09;100.00;100835.03;5017943;28;20037;-43
2022/12/17 13:47:36;;;;;;;1.73;1.10;;;;;;;4.15;100.00;100828.38;5023964;28;20052;-42
2022/12/17 13:50:19;;;;;;;1.05;0.80;;;;;;;4.21;100.00;100832.63;5021352;28;20129;-41
2022/12/17 13:53:11;;;;;;;1.40;0.85;;;;;;;4.26;100.00;100818.03;5002472;28;20049;-42
2022/12/17 13:55:39;;;;;;;1.90;1.38;;;;;;;4.28;100.00;100824.03;5020612;28;20053;-41
2022/12/17 13:58:23;;;;;;;3.10;1.58;;;;;;;4.30;100.00;100817.13;5023436;28;20045;-42
2022/12/17 14:01:02;;;;;;;3.88;1.90;;;;;;;4.31;100.00;100818.72;5020271;28;20565;-49
2022/12/17 14:03:30;;;;;;;5.30;2.88;;;;;;;4.31;100.00;100820.69;5025507;28;20044;-42
2022/12/17 14:06:17;;;;;;;2.45;1.40;;;;;;;4.35;100.00;100829.09;5007437;28;20041;-41
2022/12/17 14:08:46;;;;;;;4.75;1.15;;;;;;;4.39;100.00;100824.66;5022633;28;20430;-42
2022/12/17 14:14:02;;;;;;;2.53;1.00;;;;;;;4.35;100.00;100821.69;5014982;28;20061;-42
2022/12/17 14:16:29;;;;;;;1.83;1.15;;;;;;;4.33;100.00;100823.94;5021670;28;20092;-42
2022/12/17 14:18:58;;;;;;;1.30;1.20;;;;;;;4.28;100.00;100818.53;5021378;28;20037;-42
2022/12/17 14:21:27;;;;;;;1.52;1.10;;;;;;;4.24;100.00;100825.72;5023994;28;20045;-41
2022/12/17 14:23:55;;;;;;;1.38;1.00;;;;;;;4.18;100.00;100821.47;5008708;28;20107;-42
2022/12/17 14:26:22;;;;;;;1.92;1.23;;;;;;;4.14;100.00;100807.53;5020983;28;20044;-44
2022/12/17 14:28:52;;;;;;;2.55;0.85;;;;;;;4.07;100.00;100809.06;5026872;28;20050;-42
2022/12/17 14:31:18;;;;;;;1.40;0.95;;;;;;;3.99;100.00;100815.22;5026621;28;20041;-41
2022/12/17 14:34:09;;;;;;;1.35;1.10;;;;;;;3.91;100.00;100811.25;5025899;28;20104;-42
2022/12/17 14:36:39;;;;;;;1.58;0.90;;;;;;;3.84;100.00;100819.00;5027860;28;20128;-43
2022/12/17 14:39:19;;;;;;;1.27;1.05;;;;;;;3.77;100.00;100815.84;5026001;28;20133;-41
2022/12/17 14:44:32;;;;;;;2.60;1.58;;;;;;;3.68;100.00;100817.63;5023275;28;20049;-45
2022/12/17 14:47:11;;;;;;;1.83;1.13;;;;;;;3.64;100.00;100813.88;5023532;28;20076;-45
2022/12/17 14:49:55;;;;;;;3.55;1.42;;;;;;;3.60;100.00;100815.59;5026463;28;20148;-45
2022/12/17 14:52:29;;;;;;;1.40;1.27;;;;;;;3.57;100.00;100813.44;5018615;28;20509;-44
2022/12/17 14:54:56;;;;;;;3.13;1.63;;;;;;;3.56;100.00;100820.00;5026019;28;20510;-44
2022/12/17 14:57:23;;;;;;;3.75;1.63;;;;;;;3.54;100.00;100822.22;5025429;28;20042;-45
2022/12/17 14:59:51;;;;;;;3.63;1.60;;;;;;;3.53;100.00;100812.38;5019048;28;20460;-42
2022/12/17 15:02:27;;;;;;;2.65;1.35;;;;;;;3.51;100.00;100804.47;5023261;28;20081;-43
2022/12/17 15:04:58;;;;;;;5.00;2.28;;;;;;;3.48;100.00;100812.47;5001597;28;20061;-43
2022/12/17 15:07:27;;;;;;;2.47;1.40;;;;;;;3.46;100.00;100815.50;5016143;28;20045;-42
2022/12/17 15:09:54;;;;;;;4.53;1.73;;;;;;;3.44;100.00;100812.22;5019179;28;20053;-43
2022/12/17 15:12:23;;;;;;;3.78;1.90;;;;;;;3.41;100.00;100812.03;5004873;28;20745;-43
2022/12/17 15:14:50;;;;;;;5.15;1.83;;;;;;;3.40;100.00;100805.75;5015638;28;20038;-44
2022/12/17 15:17:17;;;;;;;2.53;1.50;;;;;;;3.39;100.00;100808.78;5007709;28;20037;-43
2022/12/17 15:19:44;;;;;;;3.05;1.75;;;;;;;3.36;100.00;100814.84;5014813;28;20045;-43
2022/12/17 15:22:16;;;;;;;8.23;4.50;;;;;;;3.32;100.00;100813.78;5007875;28;20118;-43
2022/12/17 15:24:44;;;;;;;13.32;5.80;;;;;;;3.30;100.00;100816.03;5008590;28;20498;-44
2022/12/17 15:27:18;;;;;;;4.35;2.60;;;;;;;3.27;100.00;100809.22;5015422;28;20399;-43
2022/12/17 15:29:44;;;;;;;7.28;2.35;;;;;;;3.26;100.00;100804.03;5016629;28;20053;-43
2022/12/17 15:32:18;;;;;;;3.30;2.15;;;;;;;3.26;100.00;100809.50;5019765;28;20045;-42
2022/12/17 15:34:45;;;;;;;3.78;2.25;;;;;;;3.23;100.00;100810.91;5014777;28;20038;-46
2022/12/17 15:37:12;;;;;;;5.90;3.08;;;;;;;3.21;100.00;100817.78;5010342;28;20050;-43
2022/12/17 15:39:39;;;;;;;5.15;3.17;;;;;;;3.18;100.00;100829.34;5016468;28;20385;-43
2022/12/17 15:44:51;;;;;;;8.23;4.38;;;;;;;3.06;100.00;100811.41;5015279;28;20046;-43
2022/12/17 15:47:18;;;;;;;11.77;6.55;;;;;;;3.02;100.00;100809.53;5019033;28;20049;-43
2022/12/17 15:49:44;;;;;;;12.80;6.90;;;;;;;2.98;100.00;100816.72;5019571;28;20446;-44
2022/12/17 15:52:14;;;;;;;8.27;4.72;;;;;;;2.94;100.00;100816.47;5013901;28;20060;-43
2022/12/17 15:54:41;;;;;;;13.15;6.97;;;;;;;2.90;100.00;100812.72;5013535;28;20041;-51
2022/12/17 15:57:08;;;;;;;18.17;8.48;;;;;;;2.86;100.00;100800.72;5012478;28;20042;-43
2022/12/17 15:59:42;;;;;;;22.02;11.13;;;;;;;2.81;100.00;100809.00;5019081;28;20064;-43
2022/12/17 16:02:10;;;;;;;27.52;12.18;;;;;;;2.77;100.00;100798.94;5008643;28;20205;-43
2022/12/17 16:04:37;;;;;;;23.88;12.95;;;;;;;2.71;100.00;100811.84;5010265;28;20464;-43
2022/12/17 16:07:04;;;;;;;21.05;9.95;;;;;;;2.66;100.00;100806.44;5007254;28;20575;-43
2022/12/17 16:09:31;;;;;;;18.80;10.18;;;;;;;2.62;100.00;100821.78;5010487;28;20046;-44
2022/12/17 16:11:58;;;;;;;20.00;9.13;;;;;;;2.58;100.00;100825.41;5009988;28;20042;-43
2022/12/17 16:14:24;;;;;;;17.63;8.70;;;;;;;2.54;100.00;100827.91;5009147;28;20701;-40
2022/12/17 16:16:51;;;;;;;18.60;9.75;;;;;;;2.49;100.00;100827.94;5007226;28;20432;-44
2022/12/17 16:19:21;;;;;;;17.02;8.98;;;;;;;2.45;100.00;100833.19;5003802;28;20050;-45
2022/12/17 16:21:48;;;;;;;21.77;12.18;;;;;;;2.42;100.00;100824.75;5004664;28;20051;-41
2022/12/17 16:24:14;;;;;;;22.17;16.20;;;;;;;2.38;100.00;100832.69;5004688;28;20046;-41
2022/12/17 16:26:41;;;;;;;35.97;19.75;;;;;;;2.33;100.00;100834.69;5003241;28;20050;-41
2022/12/17 16:29:07;;;;;;;30.52;16.63;;;;;;;2.30;100.00;100846.19;5003381;28;20045;-41
2022/12/17 16:31:34;;;;;;;26.52;14.95;;;;;;;2.26;100.00;100850.59;5007151;28;20053;-41
2022/12/17 16:34:01;;;;;;;41.95;20.60;;;;;;;2.23;100.00;100856.63;5005069;28;20050;-42
2022/12/17 16:36:28;;;;;;;26.95;15.57;;;;;;;2.21;100.00;100850.63;5001100;28;20046;-45
2022/12/17 16:38:54;;;;;;;32.30;16.52;;;;;;;2.15;100.00;100849.88;5002609;28;20096;-43
2022/12/17 16:41:21;;;;;;;55.25;23.23;;;;;;;2.14;100.00;100848.25;4984351;28;20061;-42
2022/12/17 16:43:48;;;;;;;58.25;25.73;;;;;;;2.16;100.00;100840.59;5008533;28;20070;-41
2022/12/17 16:46:26;;;;;;;29.42;15.48;;;;;;;2.18;100.00;100832.09;5006250;28;20053;-41
2022/12/17 16:48:54;;;;;;;19.88;10.82;;;;;;;2.16;100.00;100835.13;4999919;28;20045;-45
2022/12/17 16:51:23;;;;;;;32.13;14.77;;;;;;;2.15;100.00;100827.19;5005287;28;20049;-47
2022/12/17 16:53:55;;;;;;;50.92;19.30;;;;;;;2.14;100.00;100836.50;5006086;28;20046;-43
2022/12/17 16:56:27;;;;;;;38.78;17.42;;;;;;;2.11;100.00;100837.09;5005071;28;20120;-41
2022/12/17 16:58:54;;;;;;;26.00;13.40;;;;;;;2.09;100.00;100844.75;5001725;28;20595;-41
2022/12/17 17:01:27;;;;;;;27.17;15.18;;;;;;;2.04;100.00;100842.06;5008098;28;20045;-41
2022/12/17 17:03:54;;;;;;;30.10;15.80;;;;;;;2.00;100.00;100851.91;5024593;28;20045;-41
2022/12/17 17:06:22;;;;;;;29.83;16.98;;;;;;;1.93;100.00;100852.25;4996698;28;20802;-41
2022/12/17 17:08:49;;;;;;;32.22;16.65;;;;;;;1.89;100.00;100847.63;5019514;28;20067;-41
2022/12/17 17:11:18;;;;;;;27.83;14.45;;;;;;;1.85;100.00;100845.47;5019852;28;20371;-41
2022/12/17 17:13:44;;;;;;;51.08;23.05;;;;;;;1.81;100.00;100847.16;5012469;28;20390;-41
2022/12/17 17:16:11;;;;;;;48.47;21.48;;;;;;;1.81;100.00;100849.88;5023400;28;20068;-42
2022/12/17 17:18:38;;;;;;;37.90;18.17;;;;;;;1.81;100.00;100854.53;5018623;28;20095;-42
2022/12/17 17:21:17;;;;;;;37.65;20.45;;;;;;;1.78;100.00;100855.91;5022153;28;20045;-41
2022/12/17 17:23:50;;;;;;;42.72;23.35;;;;;;;1.76;100.00;100858.13;5025874;28;20047;-42
2022/12/17 17:26:16;;;;;;;58.55;28.63;;;;;;;1.74;100.00;100870.41;5025034;28;20132;-44
2022/12/17 17:28:46;;;;;;;70.97;32.47;;;;;;;1.69;100.00;100863.09;5022078;28;20037;-43
2022/12/17 17:31:15;;;;;;;55.85;29.95;;;;;;;1.66;100.00;100871.84;5016495;28;20376;-41
2022/12/17 17:33:45;;;;;;;49.85;28.30;;;;;;;1.65;100.00;100867.47;5004224;28;20080;-42
2022/12/17 17:36:13;;;;;;;42.53;26.50;;;;;;;1.62;100.00;100864.47;5022887;28;20236;-45
2022/12/17 17:38:40;;;;;;;61.97;29.05;;;;;;;1.60;100.00;100859.31;5021457;28;20045;-42
2022/12/17 17:41:10;;;;;;;54.55;28.35;;;;;;;1.58;100.00;100855.25;5023516;28;20049;-41
2022/12/17 17:43:38;;;;;;;61.70;32.92;;;;;;;1.54;100.00;100854.97;5023749;28;20365;-42
2022/12/17 17:46:17;;;;;;;57.65;33.60;;;;;;;1.54;100.00;100856.88;5008393;28;20400;-42
2022/12/17 17:48:45;;;;;;;104.65;53.35;;;;;;;1.53;100.00;100844.38;5019261;28;20518;-42
2022/12/17 17:51:17;;;;;;;75.63;43.22;;;;;;;1.54;100.00;100844.06;5021524;28;20060;-41
2022/12/17 17:53:50;;;;;;;70.63;36.33;;;;;;;1.51;100.00;100844.63;5022387;28;20056;-41
2022/12/17 17:56:21;;;;;;;92.95;50.40;;;;;;;1.43;100.00;100836.25;5020999;28;20056;-41
2022/12/17 17:58:50;;;;;;;164.45;84.32;;;;;;;1.38;100.00;100842.53;5001156;28;20052;-41
2022/12/17 18:01:29;;;;;;;124.22;65.78;;;;;;;1.37;100.00;100838.19;5021473;28;20083;-45
2022/12/17 18:04:02;;;;;;;105.10;55.35;;;;;;;1.36;100.00;100838.44;5027683;28;20564;-41
2022/12/17 18:06:29;;;;;;;109.20;56.83;;;;;;;1.34;100.00;100844.19;5022882;28;20041;-42
2022/12/17 18:08:57;;;;;;;101.90;55.67;;;;;;;1.28;100.00;100837.13;5023089;28;20418;-49
2022/12/17 18:11:27;;;;;;;102.10;56.70;;;;;;;1.23;100.00;100839.91;5025006;28;20045;-46
2022/12/17 18:13:55;;;;;;;112.28;62.20;;;;;;;1.24;100.00;100838.81;5024711;28;20049;-43
2022/12/17 18:16:28;;;;;;;108.50;60.13;;;;;;;1.22;100.00;100835.53;5004660;28;20348;-41
2022/12/17 18:18:57;;;;;;;100.72;55.47;;;;;;;1.20;100.00;100837.72;5024119;28;20052;-41
2022/12/17 18:21:26;;;;;;;106.47;62.45;;;;;;;1.15;100.00;100841.31;5020618;28;20042;-41
2022/12/17 18:23:58;;;;;;;114.60;64.10;;;;;;;1.08;100.00;100839.97;5024165;28;20049;-42
2022/12/17 18:26:30;;;;;;;115.28;70.63;;;;;;;1.03;100.00;100848.19;5020438;28;20037;-41
2022/12/17 18:28:57;;;;;;;106.03;60.70;;;;;;;0.99;100.00;100842.47;5021696;28;20514;-41
2022/12/17 18:31:25;;;;;;;131.85;76.53;;;;;;;0.95;100.00;100846.03;5022282;28;20234;-41
2022/12/17 18:33:57;;;;;;;131.85;77.63;;;;;;;0.92;100.00;100843.88;5023040;28;20411;-46
2022/12/17 18:36:26;;;;;;;125.43;72.20;;;;;;;0.91;100.00;100855.84;5015502;28;20474;-42
2022/12/17 18:38:57;;;;;;;131.70;73.25;;;;;;;0.83;100.00;100854.53;5023031;28;20144;-42
2022/12/17 18:44:11;;;;;;;141.27;83.78;;;;;;;0.84;100.00;100856.16;5029665;28;20131;-41
2022/12/17 18:46:38;;;;;;;151.88;82.82;;;;;;;0.88;100.00;100857.22;5023604;28;20042;-44
2022/12/17 18:49:08;;;;;;;147.95;76.43;;;;;;;0.87;100.00;100855.63;5026232;28;20057;-41
2022/12/17 18:51:37;;;;;;;134.98;78.13;;;;;;;0.87;100.00;100861.06;5026638;28;20052;-42
2022/12/17 18:54:05;;;;;;;124.35;72.10;;;;;;;0.85;100.00;100859.72;5025110;28;20037;-41
2022/12/17 18:56:34;;;;;;;120.95;70.45;;;;;;;0.88;100.00;100861.84;5023489;28;20046;-42
2022/12/17 18:59:23;;;;;;;158.43;84.53;;;;;;;0.88;100.00;100859.94;5014700;28;20077;-41
2022/12/17 19:01:55;;;;;;;164.60;84.47;;;;;;;0.91;100.00;100861.31;5029003;28;20600;-43
2022/12/17 19:04:23;;;;;;;192.85;94.93;;;;;;;0.90;100.00;100848.78;5026273;28;20054;-41
2022/12/17 19:06:52;;;;;;;203.15;98.97;;;;;;;0.92;100.00;100855.59;5023150;28;20053;-43
2022/12/17 19:09:25;;;;;;;218.63;103.00;;;;;;;0.86;100.00;100848.53;5020845;28;20049;-41
2022/12/17 19:11:53;;;;;;;211.70;100.00;;;;;;;0.89;100.00;100858.06;5024021;28;20088;-43
2022/12/17 19:14:21;;;;;;;163.60;84.88;;;;;;;0.86;100.00;100853.16;5026029;28;20045;-41
2022/12/17 19:16:49;;;;;;;188.15;90.93;;;;;;;0.89;100.00;100853.41;5028229;28;20076;-41
2022/12/17 19:19:17;;;;;;;156.52;78.70;;;;;;;0.89;100.00;100855.31;5029872;28;20049;-42
2022/12/17 19:21:45;;;;;;;155.93;77.35;;;;;;;0.88;100.00;100856.41;5029416;28;20095;-43
2022/12/17 19:24:15;;;;;;;155.20;78.30;;;;;;;0.83;100.00;100859.16;5029697;28;20049;-42
2022/12/17 19:26:43;;;;;;;108.57;58.13;;;;;;;0.82;100.00;100857.53;5026508;28;20525;-42
2022/12/17 19:29:12;;;;;;;130.73;69.80;;;;;;;0.85;100.00;100863.22;5028341;28;20061;-42
2022/12/17 19:31:39;;;;;;;118.57;64.93;;;;;;;0.86;100.00;100850.44;5029467;28;20048;-45
2022/12/17 19:34:09;;;;;;;138.02;75.65;;;;;;;0.89;100.00;100858.06;5029370;28;20061;-43
2022/12/17 19:36:37;;;;;;;130.32;72.88;;;;;;;0.89;100.00;100855.31;5029238;28;20049;-43
2022/12/17 19:39:07;;;;;;;143.70;85.35;;;;;;;0.88;100.00;100856.41;5008731;28;20646;-42
2022/12/17 19:41:34;;;;;;;135.65;80.63;;;;;;;0.85;100.00;100857.78;5028716;28;20073;-42
2022/12/17 19:44:06;;;;;;;126.97;70.80;;;;;;;0.87;100.00;100860.25;5021526;28;20053;-42
2022/12/17 19:46:35;;;;;;;115.60;68.18;;;;;;;0.86;100.00;100853.16;5029299;28;20049;-42
2022/12/17 19:49:02;;;;;;;136.57;77.00;;;;;;;0.86;100.00;100847.69;5028075;28;20128;-42
2022/12/17 19:51:31;;;;;;;124.10;72.28;;;;;;;0.87;100.00;100849.34;5029671;28;20051;-42
2022/12/17 19:53:58;;;;;;;115.22;68.28;;;;;;;0.86;100.00;100842.25;5029345;28;20041;-42
2022/12/17 19:56:34;;;;;;;128.57;70.85;;;;;;;0.85;100.00;100851.53;5029913;28;20050;-43
2022/12/17 19:59:05;;;;;;;110.60;63.22;;;;;;;0.82;100.00;100839.25;5027455;28;20136;-42
2022/12/17 20:01:35;;;;;;;106.82;59.60;;;;;;;0.84;100.00;100831.63;5020259;28;20053;-45
2022/12/17 20:04:03;;;;;;;99.60;59.40;;;;;;;0.83;100.00;100835.44;5029494;28;20048;-41
2022/12/17 20:06:32;;;;;;;106.20;61.22;;;;;;;0.83;100.00;100823.72;5029525;28;20132;-44
2022/12/17 20:09:00;;;;;;;112.03;63.78;;;;;;;0.84;100.00;100833.53;5025536;28;20056;-51
2022/12/17 20:11:33;;;;;;;100.55;63.28;;;;;;;0.82;100.00;100830.28;5018466;28;20046;-42
2022/12/17 20:14:03;;;;;;;112.22;62.78;;;;;;;0.78;100.00;100835.47;5024438;28;20140;-42
2022/12/17 20:16:33;;;;;;;120.75;63.10;;;;;;;0.78;100.00;100835.47;5023778;28;20537;-43
2022/12/17 20:19:01;;;;;;;110.13;63.38;;;;;;;0.80;100.00;100837.91;5022744;28;20049;-42
2022/12/17 20:21:27;;;;;;;101.43;56.35;;;;;;;0.83;100.00;100843.63;5026759;28;20075;-44
2022/12/17 20:23:56;;;;;;;102.57;55.72;;;;;;;0.88;100.00;100837.34;5024939;28;20057;-44
2022/12/17 20:26:24;;;;;;;86.50;49.47;;;;;;;0.90;100.00;100822.31;5025125;28;20046;-43
2022/12/17 20:28:51;;;;;;;79.40;48.10;;;;;;;0.90;100.00;100821.53;5018880;28;20537;-42
2022/12/17 20:31:19;;;;;;;90.15;51.00;;;;;;;0.87;100.00;100816.63;5023872;28;20400;-42
2022/12/17 20:33:46;;;;;;;83.95;46.85;;;;;;;0.86;100.00;100820.44;5024480;28;20045;-42
2022/12/17 20:36:15;;;;;;;88.03;46.63;;;;;;;0.84;100.00;100812.56;5026125;28;20045;-42
2022/12/17 20:38:43;;;;;;;82.97;44.20;;;;;;;0.85;100.00;100814.19;5018776;28;20395;-41
2022/12/17 20:41:15;;;;;;;76.07;44.90;;;;;;;0.90;100.00;100795.06;5025827;28;20451;-42
2022/12/17 20:43:42;;;;;;;;;;;;;;;0.92;100.00;100801.09;5032408;28;20044;-42
2022/12/17 20:46:09;;;;;;;68.72;41.55;;;;;;;0.96;100.00;100798.59;5021916;28;19920;-42
2022/12/17 20:48:38;;;;;;;71.13;41.17;;;;;;;0.98;100.00;100796.44;5023996;28;20136;-42
2022/12/17 20:51:11;;;;;;;70.07;40.50;;;;;;;1.00;100.00;100799.69;5022286;28;20052;-42
2022/12/17 20:53:38;;;;;;;;;;;;;;;0.99;100.00;100798.03;5025804;28;20064;-42
2022/12/17 20:56:07;;;;;;;59.30;33.30;;;;;;;0.98;100.00;100791.75;5022987;28;19925;-44
2022/12/17 20:58:35;;;;;;;58.92;32.00;;;;;;;1.01;100.00;100793.94;5019533;28;20056;-42
2022/12/17 21:01:14;;;;;;;54.22;31.30;;;;;;;1.05;100.00;100792.28;5014488;28;20103;-45
2022/12/17 21:03:42;;;;;;;50.95;26.98;;;;;;;1.09;100.00;100796.06;5021098;28;20443;-42
2022/12/17 21:06:13;;;;;;;46.85;25.27;;;;;;;1.12;100.00;100781.06;5019164;28;20496;-42
2022/12/17 21:08:41;;;;;;;41.47;22.70;;;;;;;1.15;100.00;100786.78;5003632;28;20518;-42
2022/12/17 21:11:21;;;;;;;41.85;21.30;;;;;;;1.18;100.00;100791.66;5023723;28;20593;-42
2022/12/17 21:13:48;;;;;;;34.22;18.95;;;;;;;1.21;100.00;100798.47;5021737;28;20055;-42
2022/12/17 21:16:23;;;;;;;31.38;19.45;;;;;;;1.26;100.00;100805.78;5003925;28;20420;-47
2022/12/17 21:18:52;;;;;;;53.25;28.42;;;;;;;1.30;100.00;100804.16;5014046;28;20057;-42
2022/12/17 21:21:21;;;;;;;59.58;33.38;;;;;;;1.34;100.00;100814.19;5022141;28;20052;-42
2022/12/17 21:23:49;;;;;;;72.88;38.75;;;;;;;1.35;100.00;100810.34;5026396;28;20041;-42
2022/12/17 21:26:17;;;;;;;66.90;36.03;;;;;;;1.36;100.00;100828.38;5023657;28;20045;-42
2022/12/17 21:28:46;;;;;;;47.35;27.10;;;;;;;1.42;100.00;100813.59;5021462;28;20053;-42
2022/12/17 21:31:22;;;;;;;50.88;24.15;;;;;;;1.47;100.00;100812.75;5018167;28;20050;-42
2022/12/17 21:33:51;;;;;;;39.92;25.05;;;;;;;1.52;100.00;100813.53;5012710;28;20081;-41
2022/12/17 21:36:20;;;;;;;44.17;23.30;;;;;;;1.55;100.00;100817.59;5020789;28;20184;-42
2022/12/17 21:38:47;;;;;;;47.42;23.33;;;;;;;1.57;100.00;100821.69;4997732;28;20061;-42
2022/12/17 21:41:26;;;;;;;40.08;22.77;;;;;;;1.58;100.00;100826.03;5022912;28;20046;-42
2022/12/17 21:43:55;;;;;;;32.85;18.80;;;;;;;1.60;100.00;100832.03;4999334;28;20045;-45
2022/12/17 21:46:24;;;;;;;34.78;21.10;;;;;;;1.62;100.00;100826.28;5013423;28;20487;-42
2022/12/17 21:48:52;;;;;;;28.58;17.42;;;;;;;1.66;100.00;100830.91;5019261;28;20065;-42
2022/12/17 21:51:20;;;;;;;28.33;17.73;;;;;;;1.68;100.00;100836.88;5016340;28;20042;-42
2022/12/17 21:53:52;;;;;;;24.75;17.63;;;;;;;1.72;100.00;100843.38;5014344;28;20053;-48
2022/12/17 21:56:19;;;;;;;27.92;16.00;;;;;;;1.76;100.00;100830.81;5024140;28;20096;-45
2022/12/17 21:58:46;;;;;;;28.25;16.17;;;;;;;1.80;100.00;100834.59;5019021;28;20071;-41
2022/12/17 22:01:18;;;;;;;34.55;19.67;;;;;;;1.85;100.00;100841.94;5023667;28;20407;-42
2022/12/17 22:03:47;;;;;;;26.17;17.27;;;;;;;1.88;100.00;100830.44;5025591;28;20049;-42
2022/12/17 22:06:22;;;;;;;24.67;15.45;;;;;;;1.91;100.00;100827.13;5002765;28;20061;-42
2022/12/17 22:08:58;;;;;;;27.25;15.20;;;;;;;1.93;100.00;100824.97;5022762;28;20046;-42
2022/12/17 22:11:37;;;;;;;24.23;13.55;;;;;;;1.93;100.00;100818.69;5025822;28;20127;-43
2022/12/17 22:14:11;;;;;;;19.00;12.98;;;;;;;1.92;100.00;100823.31;5023344;28;20096;-46
2022/12/17 22:16:47;;;;;;;22.73;14.30;;;;;;;1.90;100.00;100830.16;5012982;28;20041;-42
2022/12/17 22:19:18;;;;;;;58.15;27.58;;;;;;;1.89;100.00;100823.88;5022529;28;20045;-42
2022/12/17 22:21:49;;;;;;;67.35;31.77;;;;;;;1.89;100.00;100807.50;5017881;28;20487;-42
2022/12/17 22:24:21;;;;;;;45.50;22.13;;;;;;;1.91;100.00;100805.31;5015407;28;20126;-42
2022/12/17 22:26:49;;;;;;;31.48;16.17;;;;;;;1.91;100.00;100796.31;5018735;28;20508;-41
2022/12/17 22:32:58;;;;;;;17.27;11.45;;;;;;;1.93;100.00;100791.38;5022683;28;20398;-47
2022/12/17 22:34:49;;;;;;;23.92;13.63;;;;;;;1.93;100.00;100792.19;5022456;28;20041;-43
2022/12/17 22:37:36;;;;;;;41.95;21.05;;;;;;;1.93;100.00;100788.66;5024588;28;20063;-44
2022/12/17 22:40:23;;;;;;;36.55;19.40;;;;;;;1.89;100.00;100798.50;5021158;28;20041;-42
2022/12/17 22:43:28;;;;;;;41.03;20.15;;;;;;;1.87;100.00;100797.97;5022352;28;20033;-43
2022/12/17 22:46:15;;;;;;;26.60;15.00;;;;;;;1.84;100.00;100792.00;5022304;28;20050;-42
2022/12/17 22:48:42;;;;;;;33.47;16.50;;;;;;;1.82;100.00;100786.00;5020529;28;20068;-43
2022/12/17 22:51:10;;;;;;;37.92;18.15;;;;;;;1.82;100.00;100802.41;5018322;28;20116;-43
2022/12/17 22:53:46;;;;;;;46.70;22.85;;;;;;;1.78;100.00;100784.94;5024647;28;20049;-42
2022/12/17 22:56:15;;;;;;;43.28;21.33;;;;;;;1.79;100.00;100777.56;5022391;28;20048;-44
2022/12/17 22:59:02;;;;;;;34.70;17.80;;;;;;;1.78;100.00;100779.47;5022911;28;20132;-42
2022/12/17 23:01:30;;;;;;;36.70;16.15;;;;;;;1.78;100.00;100774.03;5023116;28;20049;-47
2022/12/17 23:03:58;;;;;;;31.08;16.05;;;;;;;1.76;100.00;100770.78;5024300;28;20083;-42
2022/12/17 23:06:26;;;;;;;34.55;17.92;;;;;;;1.73;100.00;100776.81;5021226;28;20053;-42
2022/12/17 23:08:53;;;;;;;34.08;17.30;;;;;;;1.71;100.00;100775.47;5025137;28;20053;-42
2022/12/17 23:11:22;;;;;;;31.02;15.45;;;;;;;1.67;100.00;100769.75;5025857;28;20056;-41
2022/12/17 23:13:50;;;;;;;28.45;14.55;;;;;;;1.67;100.00;100771.66;5027008;28;20064;-42
2022/12/17 23:16:17;;;;;;;24.98;14.27;;;;;;;1.67;100.00;100767.03;5022134;28;20041;-42
2022/12/17 23:18:45;;;;;;;26.00;12.60;;;;;;;1.69;100.00;100759.38;5020467;28;20050;-41
2022/12/17 23:21:21;;;;;;;28.20;13.63;;;;;;;1.74;100.00;100759.34;5021035;28;20434;-42
2022/12/17 23:23:48;;;;;;;23.80;12.60;;;;;;;1.71;100.00;100748.16;5025550;28;20077;-42
2022/12/17 23:26:21;;;;;;;29.15;14.32;;;;;;;1.68;100.00;100735.09;5020218;28;20115;-43
2022/12/17 23:28:51;;;;;;;27.55;13.32;;;;;;;1.65;100.00;100741.94;5019148;28;20062;-42
2022/12/17 23:31:20;;;;;;;27.25;13.45;;;;;;;1.66;100.00;100740.84;5004838;28;20045;-43
2022/12/17 23:33:46;;;;;;;30.20;14.02;;;;;;;1.68;100.00;100735.09;5019511;28;20045;-43
2022/12/17 23:36:19;;;;;;;33.20;16.80;;;;;;;1.64;100.00;100740.31;5022197;28;20137;-41
2022/12/17 23:38:46;;;;;;;;;;;;;;;1.61;100.00;100732.72;5025266;28;20049;-41
2022/12/17 23:41:18;;;;;;;24.42;15.02;;;;;;;1.59;100.00;100732.16;5021580;28;19921;-42
2022/12/17 23:43:46;;;;;;;26.58;16.02;;;;;;;1.58;100.00;100724.28;5031324;28;20033;-41
2022/12/17 23:46:13;;;;;;;34.35;17.17;;;;;;;1.57;100.00;100718.00;5020953;28;20042;-41
2022/12/17 23:48:42;;;;;;;31.38;17.17;;;;;;;1.58;100.00;100710.63;5025219;28;20045;-44
2022/12/17 23:51:14;;;;;;;27.88;14.10;;;;;;;1.57;100.00;100704.34;5024689;28;20045;-41
2022/12/17 23:53:42;;;;;;;28.73;17.35;;;;;;;1.59;100.00;100717.72;5005980;28;20554;-41
2022/12/17 23:56:14;;;;;;;24.27;15.05;;;;;;;1.60;100.00;100694.78;5024347;28;20047;-41
2022/12/17 23:58:43;;;;;;;25.23;15.77;;;;;;;1.62;100.00;100701.56;5024707;28;20079;-43
